Time;durP1;ratioP1;P1;durP2;ratioP2;P2;SDS_P1;SDS_P2;PMS_P1;PMS_P2;Temp;Humidity;BMP_temperature;BMP_pressure;BME280_temperature;BME280_humidity;BME280_pressure;Samples;Min_cycle;Max_cycle;Signal;HPM_P1;HPM_P2
2023/09/30 00:00:58;;;;;;;7.38;5.10;;;21.60;82.80;;;;;;4993311;28;20177;-70
2023/09/30 00:03:24;;;;;;;8.07;5.32;;;21.60;82.80;;;;;;4993252;28;20255;-71
2023/09/30 00:05:50;;;;;;;8.13;5.43;;;21.60;82.80;;;;;;4992940;28;20215;-70
2023/09/30 00:08:16;;;;;;;8.10;5.18;;;21.60;82.70;;;;;;4976713;28;20201;-70
2023/09/30 00:10:42;;;;;;;7.70;5.30;;;21.60;82.80;;;;;;5001053;28;20188;-71
2023/09/30 00:13:07;;;;;;;7.60;5.50;;;21.60;82.70;;;;;;4992559;28;20251;-70
2023/09/30 00:15:34;;;;;;;8.20;5.28;;;21.60;82.80;;;;;;4992444;28;20193;-70
2023/09/30 00:18:01;;;;;;;7.00;4.75;;;21.60;82.70;;;;;;4976494;28;20250;-70
2023/09/30 00:20:28;;;;;;;9.07;5.40;;;21.50;82.70;;;;;;4976347;28;20192;-70
2023/09/30 00:22:54;;;;;;;8.27;5.38;;;21.50;82.70;;;;;;5000764;28;20207;-70
2023/09/30 00:25:20;;;;;;;7.53;5.07;;;21.50;82.70;;;;;;4994344;28;20208;-70
2023/09/30 00:27:47;;;;;;;10.23;5.68;;;21.60;82.80;;;;;;4998297;28;20219;-71
2023/09/30 00:30:13;;;;;;;8.55;5.22;;;21.60;82.80;;;;;;4984059;28;20184;-71
2023/09/30 00:32:41;;;;;;;7.70;4.35;;;21.60;82.80;;;;;;4975986;28;20211;-71
2023/09/30 00:35:11;;;;;;;9.80;5.53;;;21.60;82.80;;;;;;4992250;28;20181;-71
2023/09/30 00:37:41;;;;;;;7.78;4.80;;;21.60;82.80;;;;;;4959417;28;20215;-70
2023/09/30 00:40:11;;;;;;;7.55;4.63;;;21.60;82.80;;;;;;4967776;28;20196;-71
2023/09/30 00:42:38;;;;;;;7.38;5.10;;;21.60;82.70;;;;;;4990996;28;20188;-71
2023/09/30 00:45:06;;;;;;;7.22;5.00;;;21.60;82.70;;;;;;4959637;28;20582;-70
2023/09/30 00:47:34;;;;;;;7.65;5.03;;;21.60;82.70;;;;;;4975348;28;20227;-70
2023/09/30 00:50:00;;;;;;;8.95;5.45;;;21.60;82.70;;;;;;4975796;28;20192;-70
2023/09/30 00:52:27;;;;;;;7.93;4.78;;;21.50;82.60;;;;;;5007451;28;20188;-70
2023/09/30 00:54:54;;;;;;;7.90;5.05;;;21.50;82.60;;;;;;4991723;28;20652;-70
2023/09/30 00:57:21;;;;;;;8.07;4.75;;;21.60;82.70;;;;;;4959028;28;20215;-73
2023/09/30 00:59:50;;;;;;;7.70;4.78;;;21.50;82.60;;;;;;4991630;28;20193;-70
2023/09/30 01:02:22;;;;;;;8.18;4.95;;;21.50;82.60;;;;;;4975127;28;20199;-70
2023/09/30 01:04:49;;;;;;;6.72;4.53;;;21.50;82.60;;;;;;4991632;28;20197;-70
2023/09/30 01:07:15;;;;;;;8.02;4.85;;;21.50;82.60;;;;;;4982300;28;20307;-70
2023/09/30 01:09:42;;;;;;;7.63;4.88;;;21.50;82.60;;;;;;4955859;28;20733;-70
2023/09/30 01:12:08;;;;;;;7.95;5.07;;;21.50;82.60;;;;;;4988416;28;20185;-70
2023/09/30 01:14:35;;;;;;;7.18;4.65;;;21.50;82.70;;;;;;5006886;28;20189;-70
2023/09/30 01:17:02;;;;;;;7.32;4.82;;;21.50;82.60;;;;;;4998449;28;20280;-70
2023/09/30 01:19:29;;;;;;;7.97;4.93;;;21.50;82.60;;;;;;4999036;28;20220;-71
2023/09/30 01:22:05;;;;;;;7.18;4.63;;;21.50;82.60;;;;;;4963649;28;20199;-71
2023/09/30 01:24:39;;;;;;;6.13;4.70;;;21.50;82.60;;;;;;4993345;28;20203;-70
2023/09/30 01:27:07;;;;;;;6.57;4.57;;;21.50;82.50;;;;;;4998430;28;20220;-70
2023/09/30 01:29:32;;;;;;;8.98;4.90;;;21.50;82.50;;;;;;4990112;28;20189;-70
2023/09/30 01:31:58;;;;;;;7.10;4.97;;;21.50;82.50;;;;;;4992581;28;20239;-72
2023/09/30 01:34:24;;;;;;;8.45;4.82;;;21.50;82.40;;;;;;4974934;28;20225;-70
2023/09/30 01:36:49;;;;;;;6.68;4.45;;;21.50;82.40;;;;;;4964193;28;20250;-70
2023/09/30 01:39:16;;;;;;;7.18;4.70;;;21.50;82.50;;;;;;4990780;28;20270;-70
2023/09/30 01:41:41;;;;;;;7.55;4.40;;;21.50;82.50;;;;;;4966758;28;20192;-70
2023/09/30 01:44:09;;;;;;;6.90;4.70;;;21.50;82.40;;;;;;4974972;28;20189;-71
2023/09/30 01:46:36;;;;;;;7.13;4.80;;;21.50;82.40;;;;;;4993487;28;20273;-70
2023/09/30 01:49:03;;;;;;;6.30;4.50;;;21.50;82.40;;;;;;4985716;28;20209;-70
2023/09/30 01:51:30;;;;;;;7.13;4.75;;;21.50;82.40;;;;;;4976424;28;20246;-72
2023/09/30 01:53:58;;;;;;;6.10;4.05;;;21.50;82.40;;;;;;4979406;28;20184;-70
2023/09/30 01:56:23;;;;;;;7.80;4.65;;;21.50;82.40;;;;;;4990740;28;20224;-70
2023/09/30 01:58:49;;;;;;;7.80;4.75;;;21.50;82.40;;;;;;4975071;28;20200;-71
2023/09/30 02:01:16;;;;;;;7.93;4.68;;;21.50;82.40;;;;;;4963161;28;20275;-71
2023/09/30 02:03:41;;;;;;;7.65;4.90;;;21.50;82.40;;;;;;4992048;28;20196;-71
2023/09/30 02:06:08;;;;;;;7.00;4.70;;;21.50;82.40;;;;;;5001614;28;20220;-70
2023/09/30 02:08:36;;;;;;;7.32;4.50;;;21.50;82.40;;;;;;4988076;28;20212;-70
2023/09/30 02:11:05;;;;;;;6.20;4.38;;;21.50;82.40;;;;;;4991084;28;20181;-70
2023/09/30 02:13:35;;;;;;;7.13;4.53;;;21.50;82.40;;;;;;4974562;28;20189;-71
2023/09/30 02:16:01;;;;;;;6.72;4.57;;;21.50;82.40;;;;;;4991918;28;20239;-70
2023/09/30 02:18:27;;;;;;;7.75;4.60;;;21.50;82.40;;;;;;4974109;28;20224;-71
2023/09/30 02:20:53;;;;;;;7.80;4.72;;;21.40;82.30;;;;;;4974529;28;20279;-71
2023/09/30 02:23:19;;;;;;;6.68;4.00;;;21.50;82.40;;;;;;5008426;28;20184;-71
2023/09/30 02:25:45;;;;;;;7.65;4.88;;;21.40;82.30;;;;;;4978876;28;20315;-70
2023/09/30 02:28:11;;;;;;;7.03;4.40;;;21.50;82.40;;;;;;4963683;28;20579;-70
2023/09/30 02:30:36;;;;;;;6.75;4.63;;;21.50;82.40;;;;;;5009188;28;20185;-70
2023/09/30 02:33:04;;;;;;;5.72;3.83;;;21.50;82.30;;;;;;4965629;28;20199;-71
2023/09/30 02:35:30;;;;;;;6.32;4.03;;;21.40;82.30;;;;;;5002590;28;20203;-70
2023/09/30 02:37:56;;;;;;;6.43;4.30;;;21.50;82.40;;;;;;5004341;28;20208;-70
2023/09/30 02:40:24;;;;;;;6.10;3.85;;;21.40;82.30;;;;;;4994947;28;20238;-71
2023/09/30 02:42:51;;;;;;;6.07;3.95;;;21.50;82.40;;;;;;4984583;28;20180;-70
2023/09/30 02:45:17;;;;;;;6.80;4.60;;;21.40;82.20;;;;;;4977835;28;20290;-70
2023/09/30 02:47:44;;;;;;;5.50;4.03;;;21.40;82.30;;;;;;4977897;28;20201;-70
2023/09/30 02:50:11;;;;;;;6.35;3.92;;;21.50;82.40;;;;;;4994002;28;20259;-70
2023/09/30 02:52:39;;;;;;;7.00;4.43;;;21.40;82.30;;;;;;4977909;28;20185;-70
2023/09/30 02:55:05;;;;;;;6.38;3.83;;;21.40;82.30;;;;;;4977822;28;20643;-70
2023/09/30 02:57:32;;;;;;;7.10;4.50;;;21.40;82.30;;;;;;4977637;28;20208;-70
2023/09/30 02:59:59;;;;;;;5.63;3.78;;;21.40;82.30;;;;;;4994615;28;20196;-70
2023/09/30 03:02:26;;;;;;;5.32;3.72;;;21.40;82.30;;;;;;4983496;28;20191;-70
2023/09/30 03:04:52;;;;;;;5.68;3.90;;;21.40;82.30;;;;;;4977749;28;20220;-70
2023/09/30 03:07:21;;;;;;;5.63;3.90;;;21.40;82.20;;;;;;4993703;28;20244;-70
2023/09/30 03:09:47;;;;;;;6.38;3.92;;;21.40;82.20;;;;;;4977761;28;20181;-70
2023/09/30 03:12:13;;;;;;;5.80;3.58;;;21.40;82.20;;;;;;4993858;28;20247;-71
2023/09/30 03:14:40;;;;;;;5.80;3.72;;;21.40;82.20;;;;;;4993777;28;20189;-70
2023/09/30 03:17:11;;;;;;;7.07;4.18;;;21.40;82.20;;;;;;4993469;28;20271;-70
2023/09/30 03:19:38;;;;;;;6.15;4.00;;;21.40;82.10;;;;;;4977407;28;20197;-71
2023/09/30 03:22:04;;;;;;;6.60;4.28;;;21.40;82.10;;;;;;4977570;28;20224;-70
2023/09/30 03:24:30;;;;;;;4.95;3.53;;;21.40;82.10;;;;;;4977447;28;20189;-70
2023/09/30 03:26:57;;;;;;;5.93;4.13;;;21.40;82.10;;;;;;4993209;28;20274;-71
2023/09/30 03:29:23;;;;;;;6.35;3.88;;;21.40;82.10;;;;;;4977281;28;20632;-70
2023/09/30 03:31:49;;;;;;;6.13;3.85;;;21.40;82.10;;;;;;4977413;28;20220;-70
2023/09/30 03:34:16;;;;;;;6.35;4.00;;;21.40;82.10;;;;;;4976965;28;20192;-70
2023/09/30 03:36:42;;;;;;;6.15;4.15;;;21.40;82.10;;;;;;4994463;28;20193;-71
2023/09/30 03:39:08;;;;;;;5.22;3.58;;;21.30;81.90;;;;;;4985343;28;20300;-70
2023/09/30 03:41:37;;;;;;;5.55;3.80;;;21.40;82.10;;;;;;5002859;28;20269;-70
2023/09/30 03:44:03;;;;;;;5.88;3.75;;;21.30;82.00;;;;;;4984895;28;20738;-70
2023/09/30 03:46:29;;;;;;;5.25;3.55;;;21.30;81.90;;;;;;5007434;28;20228;-70
2023/09/30 03:48:56;;;;;;;4.88;3.47;;;21.40;82.10;;;;;;4974986;28;20208;-70
2023/09/30 03:51:24;;;;;;;6.10;3.65;;;21.40;82.10;;;;;;4978043;28;20216;-70
2023/09/30 03:53:52;;;;;;;5.38;3.63;;;21.40;82.10;;;;;;4998813;28;20193;-70
2023/09/30 03:56:18;;;;;;;4.78;3.70;;;21.40;82.10;;;;;;4992714;28;20251;-70
2023/09/30 03:58:44;;;;;;;5.43;3.55;;;21.40;82.10;;;;;;4998898;28;20312;-70
2023/09/30 04:01:11;;;;;;;5.65;3.63;;;21.40;82.10;;;;;;4998486;28;20246;-70
2023/09/30 04:03:39;;;;;;;5.47;3.75;;;21.40;82.10;;;;;;4993813;28;20235;-70
2023/09/30 04:06:09;;;;;;;5.03;3.28;;;21.30;82.00;;;;;;4993969;28;20200;-71
2023/09/30 04:08:35;;;;;;;5.30;3.50;;;21.40;82.10;;;;;;4981642;28;20266;-70
2023/09/30 04:11:04;;;;;;;5.38;3.35;;;21.30;82.00;;;;;;5001400;28;20267;-70
2023/09/30 04:13:31;;;;;;;5.70;3.78;;;21.40;82.10;;;;;;4993721;28;20239;-70
2023/09/30 04:15:59;;;;;;;5.20;3.35;;;21.40;82.10;;;;;;4989431;28;20250;-71
2023/09/30 04:18:28;;;;;;;5.53;3.45;;;21.40;82.10;;;;;;4974936;28;20209;-70
2023/09/30 04:20:54;;;;;;;5.07;3.28;;;21.40;82.00;;;;;;4992864;28;20193;-71
2023/09/30 04:23:23;;;;;;;5.28;3.53;;;21.40;82.10;;;;;;4985085;28;20189;-70
2023/09/30 04:25:49;;;;;;;5.00;3.35;;;21.30;81.90;;;;;;5005703;28;20220;-70
2023/09/30 04:28:19;;;;;;;5.25;3.60;;;21.40;82.00;;;;;;4992291;28;20216;-70
2023/09/30 04:30:46;;;;;;;5.18;3.55;;;21.40;82.10;;;;;;4993402;28;20204;-70
2023/09/30 04:33:13;;;;;;;6.35;3.45;;;21.40;82.10;;;;;;4983797;28;20185;-70
2023/09/30 04:35:39;;;;;;;5.55;3.63;;;21.40;82.00;;;;;;4986162;28;20619;-71
2023/09/30 04:38:04;;;;;;;5.10;3.40;;;21.30;82.00;;;;;;5003646;28;20298;-70
2023/09/30 04:40:32;;;;;;;5.38;3.47;;;21.40;82.10;;;;;;5005349;28;20192;-70
2023/09/30 04:42:58;;;;;;;5.15;3.42;;;21.30;82.00;;;;;;4980996;28;20671;-70
2023/09/30 04:45:27;;;;;;;5.63;3.50;;;21.40;82.10;;;;;;4985228;28;20197;-70
2023/09/30 04:47:56;;;;;;;4.75;3.17;;;21.40;82.90;;;;;;5001522;28;20275;-70
2023/09/30 04:50:22;;;;;;;3.75;2.90;;;21.30;81.90;;;;;;4992096;28;20200;-70
2023/09/30 04:52:49;;;;;;;5.45;3.60;;;21.30;81.90;;;;;;4987505;28;20185;-70
2023/09/30 04:55:16;;;;;;;5.78;3.42;;;21.30;81.90;;;;;;4987699;28;20263;-70
2023/09/30 04:57:47;;;;;;;4.90;3.30;;;21.40;82.00;;;;;;4992504;28;20215;-70
2023/09/30 05:00:19;;;;;;;4.38;2.95;;;21.30;81.90;;;;;;4985277;28;20264;-70
2023/09/30 05:02:45;;;;;;;4.78;3.33;;;21.30;81.80;;;;;;4980354;28;20193;-70
2023/09/30 05:05:11;;;;;;;5.55;3.63;;;21.30;81.80;;;;;;4991368;28;20213;-70
2023/09/30 05:07:37;;;;;;;4.68;3.40;;;21.30;81.80;;;;;;4998087;28;20244;-71
2023/09/30 05:10:10;;;;;;;5.13;3.50;;;21.30;81.80;;;;;;4968336;28;20177;-70
2023/09/30 05:12:36;;;;;;;5.43;3.35;;;21.30;81.80;;;;;;4974556;28;20181;-72
2023/09/30 05:15:05;;;;;;;4.40;3.05;;;21.30;81.90;;;;;;4984084;28;20180;-70
2023/09/30 05:17:32;;;;;;;4.15;2.80;;;21.30;81.90;;;;;;4991113;28;20221;-71
2023/09/30 05:19:59;;;;;;;4.75;3.15;;;21.30;81.90;;;;;;5003851;28;20222;-71
2023/09/30 05:22:25;;;;;;;5.07;3.10;;;21.30;81.80;;;;;;4984856;28;20192;-71
2023/09/30 05:24:51;;;;;;;4.63;2.88;;;21.30;81.90;;;;;;5000227;28;20193;-72
2023/09/30 05:27:19;;;;;;;5.47;3.35;;;21.30;82.70;;;;;;4991842;28;20227;-72
2023/09/30 05:29:45;;;;;;;5.05;3.50;;;21.30;81.90;;;;;;4991597;28;20212;-71
2023/09/30 05:32:11;;;;;;;4.85;3.45;;;21.30;81.90;;;;;;4992353;28;20181;-72
2023/09/30 05:34:38;;;;;;;5.85;3.55;;;21.30;81.90;;;;;;4996003;28;20204;-71
2023/09/30 05:37:04;;;;;;;5.18;3.30;;;21.30;81.90;;;;;;4962748;28;20195;-71
2023/09/30 05:39:31;;;;;;;4.53;3.17;;;21.30;81.90;;;;;;4983432;28;20197;-71
2023/09/30 05:41:58;;;;;;;4.15;2.97;;;21.30;81.90;;;;;;4999518;28;20199;-71
2023/09/30 05:44:25;;;;;;;5.72;3.33;;;21.30;81.80;;;;;;5002959;28;20203;-71
2023/09/30 05:46:51;;;;;;;4.63;3.28;;;21.30;81.90;;;;;;4959667;28;20209;-71
2023/09/30 05:49:19;;;;;;;5.15;3.53;;;21.30;81.80;;;;;;4966625;28;20192;-71
2023/09/30 05:51:46;;;;;;;4.30;3.10;;;21.30;81.90;;;;;;4999108;28;20645;-71
2023/09/30 05:54:12;;;;;;;3.97;3.20;;;21.30;81.80;;;;;;4990873;28;20185;-71
2023/09/30 05:56:42;;;;;;;4.43;3.10;;;21.30;81.90;;;;;;4997269;28;20240;-71
2023/09/30 05:59:08;;;;;;;4.40;2.97;;;21.30;81.90;;;;;;4982779;28;20305;-71
2023/09/30 06:01:34;;;;;;;4.03;2.97;;;21.30;81.90;;;;;;5006909;28;20208;-71
2023/09/30 06:04:00;;;;;;;5.18;3.25;;;21.30;81.90;;;;;;5003188;28;20616;-72
2023/09/30 06:06:29;;;;;;;4.07;3.10;;;21.30;82.00;;;;;;4967004;28;20192;-71
2023/09/30 06:08:59;;;;;;;4.50;3.22;;;21.30;82.00;;;;;;4994948;28;20209;-71
2023/09/30 06:11:28;;;;;;;5.28;3.50;;;21.30;82.00;;;;;;4982899;28;20212;-71
2023/09/30 06:13:55;;;;;;;3.85;2.92;;;21.30;82.00;;;;;;4995744;28;20207;-71
2023/09/30 06:16:21;;;;;;;4.80;2.85;;;21.30;82.10;;;;;;4994530;28;20184;-75
2023/09/30 06:18:48;;;;;;;5.18;3.42;;;21.30;82.10;;;;;;4980375;28;20205;-71
2023/09/30 06:21:20;;;;;;;3.50;2.80;;;21.30;82.10;;;;;;4988423;28;20647;-72
2023/09/30 06:23:48;;;;;;;4.40;2.97;;;21.30;82.10;;;;;;4999821;28;20289;-71
2023/09/30 06:26:16;;;;;;;4.60;2.85;;;21.30;82.10;;;;;;4990074;28;20212;-71
2023/09/30 06:28:42;;;;;;;4.38;3.13;;;21.30;82.10;;;;;;4991331;28;20217;-71
2023/09/30 06:31:09;;;;;;;4.13;2.65;;;21.30;82.10;;;;;;4994775;28;20268;-71
2023/09/30 06:33:38;;;;;;;4.82;3.13;;;21.30;82.10;;;;;;4994892;28;20189;-71
2023/09/30 06:36:11;;;;;;;5.50;3.40;;;21.30;82.10;;;;;;4995655;28;20220;-72
2023/09/30 06:38:41;;;;;;;3.50;2.85;;;21.30;82.10;;;;;;4997809;28;20229;-71
2023/09/30 06:41:08;;;;;;;4.38;2.63;;;21.30;82.10;;;;;;5002681;28;20200;-72
2023/09/30 06:43:37;;;;;;;4.57;2.92;;;21.30;82.10;;;;;;4995505;28;20188;-71
2023/09/30 06:46:09;;;;;;;3.20;2.75;;;21.30;82.10;;;;;;5001083;28;20200;-70
2023/09/30 06:48:40;;;;;;;4.20;2.70;;;21.30;82.10;;;;;;4988998;28;20216;-71
2023/09/30 06:51:06;;;;;;;4.68;2.97;;;21.30;82.10;;;;;;4994134;28;20559;-71
2023/09/30 06:53:32;;;;;;;4.38;3.00;;;21.30;82.10;;;;;;4963392;28;20215;-71
2023/09/30 06:55:57;;;;;;;4.95;2.85;;;21.30;82.90;;;;;;5005291;28;20188;-71
2023/09/30 06:58:23;;;;;;;5.13;3.00;;;21.30;82.10;;;;;;4978615;28;20205;-71
2023/09/30 07:00:51;;;;;;;4.30;2.70;;;21.30;82.20;;;;;;4994513;28;20189;-71
2023/09/30 07:03:17;;;;;;;4.85;3.03;;;21.30;82.20;;;;;;4969990;28;20196;-71
2023/09/30 07:05:43;;;;;;;4.10;2.80;;;21.30;82.20;;;;;;4993457;28;20204;-73
2023/09/30 07:08:12;;;;;;;4.85;3.15;;;21.30;82.20;;;;;;4992972;28;20640;-71
2023/09/30 07:10:38;;;;;;;3.33;2.42;;;21.30;82.30;;;;;;4981549;28;20185;-71
2023/09/30 07:13:06;;;;;;;3.15;2.63;;;21.30;82.30;;;;;;4982062;28;20189;-71
2023/09/30 07:15:32;;;;;;;4.28;2.55;;;21.30;82.20;;;;;;4983607;28;20276;-72
2023/09/30 07:17:58;;;;;;;4.78;2.95;;;21.30;82.20;;;;;;5003796;28;20692;-71
2023/09/30 07:20:24;;;;;;;4.43;3.03;;;21.30;82.30;;;;;;4986800;28;20195;-71
2023/09/30 07:22:51;;;;;;;3.88;2.80;;;21.30;82.20;;;;;;4984436;28;20188;-71
2023/09/30 07:25:17;;;;;;;3.90;2.53;;;21.30;82.30;;;;;;5001376;28;20244;-71
2023/09/30 07:27:46;;;;;;;3.55;2.83;;;21.30;82.20;;;;;;4984375;28;20201;-71
2023/09/30 07:30:14;;;;;;;4.10;2.78;;;21.30;82.20;;;;;;4962860;28;20240;-71
2023/09/30 07:32:42;;;;;;;3.80;2.58;;;21.30;82.20;;;;;;4993565;28;20181;-70
2023/09/30 07:35:08;;;;;;;3.65;2.53;;;21.30;82.30;;;;;;4999033;28;20566;-71
2023/09/30 07:37:34;;;;;;;3.35;2.60;;;21.30;82.20;;;;;;4982284;28;20216;-72
2023/09/30 07:40:00;;;;;;;4.30;2.70;;;21.30;82.20;;;;;;4961003;28;20213;-71
2023/09/30 07:42:26;;;;;;;4.03;2.78;;;21.30;82.30;;;;;;4967091;28;20242;-71
2023/09/30 07:44:52;;;;;;;4.25;2.92;;;21.30;82.20;;;;;;4979588;28;20184;-71
2023/09/30 07:47:18;;;;;;;4.35;2.78;;;21.30;82.10;;;;;;4998425;28;20219;-71
2023/09/30 07:49:44;;;;;;;5.53;2.88;;;21.30;82.90;;;;;;4995960;28;20189;-70
2023/09/30 07:52:10;;;;;;;3.30;2.72;;;21.30;82.10;;;;;;4998406;28;20204;-71
2023/09/30 07:54:36;;;;;;;3.80;2.42;;;21.40;82.30;;;;;;4995745;28;20188;-71
2023/09/30 07:57:02;;;;;;;3.90;2.97;;;21.40;82.30;;;;;;4979076;28;20188;-70
2023/09/30 07:59:28;;;;;;;2.90;2.60;;;21.40;82.30;;;;;;4979849;28;20679;-70
2023/09/30 08:01:54;;;;;;;3.00;2.35;;;21.40;82.30;;;;;;4997007;28;20194;-71
2023/09/30 08:04:20;;;;;;;4.10;2.65;;;21.40;82.20;;;;;;4976358;28;20268;-71
2023/09/30 08:06:46;;;;;;;3.63;2.40;;;21.40;82.20;;;;;;4997172;28;20223;-71
2023/09/30 08:09:15;;;;;;;4.43;2.90;;;21.40;83.00;;;;;;5000034;28;20201;-71
2023/09/30 08:11:41;;;;;;;4.57;2.80;;;21.40;82.10;;;;;;4994208;28;20189;-71
2023/09/30 08:14:09;;;;;;;4.18;3.13;;;21.40;82.10;;;;;;4985705;28;20212;-71
2023/09/30 08:16:35;;;;;;;3.28;2.50;;;21.40;82.00;;;;;;4986319;28;20241;-70
2023/09/30 08:19:01;;;;;;;3.35;2.67;;;21.40;82.00;;;;;;4991574;28;20205;-71
2023/09/30 08:21:27;;;;;;;5.13;3.17;;;21.40;82.00;;;;;;4968470;28;20200;-71
2023/09/30 08:23:53;;;;;;;5.13;3.08;;;21.40;82.10;;;;;;4989516;28;20193;-71
2023/09/30 08:26:19;;;;;;;4.40;2.90;;;21.40;82.20;;;;;;4993397;28;20264;-70
2023/09/30 08:28:45;;;;;;;4.07;3.00;;;21.40;82.10;;;;;;4980305;28;20217;-71
2023/09/30 08:31:11;;;;;;;4.78;3.13;;;21.40;82.20;;;;;;4993201;28;20176;-71
2023/09/30 08:33:39;;;;;;;5.00;2.55;;;21.40;82.20;;;;;;5002481;28;20208;-70
2023/09/30 08:36:09;;;;;;;4.22;3.08;;;21.40;82.20;;;;;;4975939;28;20284;-70
2023/09/30 08:38:37;;;;;;;5.28;3.13;;;21.50;82.20;;;;;;4976080;28;20208;-70
2023/09/30 08:41:04;;;;;;;3.55;2.78;;;21.50;82.20;;;;;;4993695;28;20201;-70
2023/09/30 08:43:33;;;;;;;4.05;2.67;;;21.50;82.20;;;;;;4992361;28;20264;-70
2023/09/30 08:46:04;;;;;;;5.00;2.80;;;21.50;82.10;;;;;;4975198;28;20242;-70
2023/09/30 08:48:33;;;;;;;4.50;2.67;;;21.50;82.20;;;;;;4991593;28;20204;-71
2023/09/30 08:51:01;;;;;;;7.38;3.05;;;21.40;82.00;;;;;;4962217;28;20200;-70
2023/09/30 08:53:29;;;;;;;4.15;3.30;;;21.50;82.40;;;;;;4975875;28;20177;-70
2023/09/30 08:55:58;;;;;;;4.95;3.45;;;21.50;82.30;;;;;;4988646;28;20201;-71
2023/09/30 08:58:28;;;;;;;6.55;3.40;;;21.50;82.30;;;;;;4959367;28;20216;-69
2023/09/30 09:00:54;;;;;;;3.97;2.78;;;21.50;82.30;;;;;;4993094;28;20196;-70
2023/09/30 09:03:20;;;;;;;4.13;2.80;;;21.50;82.30;;;;;;4975399;28;20189;-69
2023/09/30 09:05:55;;;;;;;4.70;3.00;;;21.50;82.30;;;;;;4993336;28;20208;-69
2023/09/30 09:08:23;;;;;;;3.65;2.67;;;21.50;82.30;;;;;;4974112;28;20197;-69
2023/09/30 09:11:00;;;;;;;6.07;2.95;;;21.50;82.30;;;;;;4993012;28;20283;-70
2023/09/30 09:13:27;;;;;;;5.10;3.33;;;21.50;82.30;;;;;;4990770;28;20656;-70
2023/09/30 09:16:09;;;;;;;5.90;3.13;;;21.50;82.30;;;;;;4991554;28;20247;-69
2023/09/30 09:18:38;;;;;;;4.47;3.08;;;21.50;82.20;;;;;;4986695;28;20223;-69
2023/09/30 09:21:22;;;;;;;3.80;2.60;;;21.50;82.10;;;;;;4992536;28;20575;-69
2023/09/30 09:23:51;;;;;;;4.70;3.00;;;21.50;82.10;;;;;;4989395;28;20195;-70
2023/09/30 09:26:31;;;;;;;4.78;2.85;;;21.50;82.10;;;;;;4974360;28;20213;-69
2023/09/30 09:29:04;;;;;;;4.18;3.05;;;21.50;82.20;;;;;;4994021;28;20223;-72
2023/09/30 09:31:35;;;;;;;3.88;3.00;;;21.50;82.10;;;;;;4990435;28;20268;-69
2023/09/30 09:34:04;;;;;;;5.80;3.20;;;21.50;82.10;;;;;;4976546;28;20184;-70
2023/09/30 09:36:43;;;;;;;5.10;3.22;;;21.50;82.10;;;;;;4992571;28;20724;-70
2023/09/30 09:39:13;;;;;;;6.10;3.08;;;21.50;82.10;;;;;;4982755;28;20203;-69
2023/09/30 09:41:57;;;;;;;6.53;3.55;;;21.50;82.00;;;;;;4990754;28;20188;-70
2023/09/30 09:44:27;;;;;;;6.45;3.45;;;21.50;82.00;;;;;;4975932;28;20188;-70
2023/09/30 09:46:53;;;;;;;5.03;3.10;;;21.50;82.00;;;;;;4975760;28;20216;-69
2023/09/30 09:49:22;;;;;;;6.72;3.70;;;21.50;81.90;;;;;;4993487;28;20861;-69
2023/09/30 09:51:49;;;;;;;4.32;3.00;;;21.50;81.90;;;;;;4993422;28;20311;-70
2023/09/30 09:54:16;;;;;;;5.35;3.47;;;21.50;81.80;;;;;;5000239;28;20197;-70
2023/09/30 09:56:46;;;;;;;4.13;3.38;;;21.50;81.80;;;;;;4992965;28;20187;-69
2023/09/30 09:59:13;;;;;;;4.60;3.30;;;21.50;81.90;;;;;;4993062;28;20211;-70
2023/09/30 10:01:43;;;;;;;4.18;3.35;;;21.50;81.80;;;;;;4992095;28;20273;-72
2023/09/30 10:04:11;;;;;;;4.35;3.13;;;21.50;81.80;;;;;;4990085;28;20182;-70
2023/09/30 10:06:40;;;;;;;4.50;3.50;;;21.50;81.80;;;;;;4975466;28;20212;-70
2023/09/30 10:09:11;;;;;;;5.70;3.72;;;21.60;81.90;;;;;;4988428;28;20292;-70
2023/09/30 10:11:41;;;;;;;5.55;3.25;;;21.50;81.60;;;;;;4988561;28;20268;-70
2023/09/30 10:14:14;;;;;;;6.05;3.72;;;21.50;81.70;;;;;;4970146;28;20193;-71
2023/09/30 10:16:42;;;;;;;4.50;3.13;;;21.60;81.80;;;;;;4991112;28;20185;-69
2023/09/30 10:19:13;;;;;;;6.30;4.00;;;21.50;81.50;;;;;;4990030;28;20692;-71
2023/09/30 10:21:59;;;;;;;5.45;3.60;;;21.50;81.40;;;;;;4992517;28;20271;-70
2023/09/30 10:24:25;;;;;;;4.55;3.30;;;21.50;81.20;;;;;;4975203;28;20189;-69
2023/09/30 10:27:22;;;;;;;5.72;4.00;;;21.50;81.20;;;;;;4996342;28;20211;-70
2023/09/30 10:29:57;;;;;;;5.68;3.63;;;21.50;81.30;;;;;;4991345;28;20193;-69
2023/09/30 10:32:22;;;;;;;5.75;4.00;;;21.60;81.40;;;;;;5002005;28;20263;-70
2023/09/30 10:34:52;;;;;;;4.97;3.45;;;21.60;81.40;;;;;;4985087;28;20199;-70
2023/09/30 10:37:24;;;;;;;7.18;4.07;;;21.60;81.30;;;;;;4980966;28;20239;-70
2023/09/30 10:39:56;;;;;;;5.63;4.25;;;21.60;81.00;;;;;;4993502;28;20260;-70
2023/09/30 10:42:50;;;;;;;6.25;4.10;;;21.50;80.80;;;;;;4990406;28;20253;-70
2023/09/30 10:45:42;;;;;;;5.97;4.10;;;21.60;80.80;;;;;;4994916;28;20193;-70
2023/09/30 10:48:41;;;;;;;6.40;3.95;;;21.50;80.90;;;;;;5002282;28;20231;-70
2023/09/30 10:51:21;;;;;;;7.00;4.43;;;21.60;81.10;;;;;;4991094;28;20194;-70
2023/09/30 10:53:56;;;;;;;7.18;4.47;;;21.50;80.90;;;;;;4988824;28;20197;-70
2023/09/30 10:56:23;;;;;;;6.43;4.47;;;21.60;80.90;;;;;;4994230;28;20566;-70
2023/09/30 10:58:53;;;;;;;7.15;3.95;;;21.50;80.40;;;;;;4978325;28;20207;-70
2023/09/30 11:01:20;;;;;;;7.15;4.88;;;21.60;80.70;;;;;;4977941;28;20204;-70
2023/09/30 11:03:50;;;;;;;6.80;4.32;;;21.50;80.40;;;;;;4994305;28;20188;-70
2023/09/30 11:06:20;;;;;;;6.22;4.38;;;21.60;80.60;;;;;;4993488;28;20686;-71
2023/09/30 11:09:12;;;;;;;7.85;4.93;;;21.60;80.50;;;;;;4994803;28;20224;-70
2023/09/30 11:11:48;;;;;;;7.22;4.63;;;21.60;80.50;;;;;;4987050;28;20312;-70
2023/09/30 11:14:27;;;;;;;7.35;4.85;;;21.60;80.60;;;;;;4991787;28;20558;-70
2023/09/30 11:16:56;;;;;;;7.28;4.88;;;21.60;80.60;;;;;;5001080;28;20271;-70
2023/09/30 11:19:23;;;;;;;7.90;4.95;;;21.60;80.50;;;;;;4978862;28;20223;-70
2023/09/30 11:21:54;;;;;;;9.38;5.53;;;21.60;80.50;;;;;;4972472;28;20703;-70
2023/09/30 11:24:21;;;;;;;7.25;4.63;;;21.60;80.50;;;;;;4995365;28;20213;-70
2023/09/30 11:26:47;;;;;;;7.75;4.63;;;21.60;81.10;;;;;;4991276;28;20351;-70
2023/09/30 11:29:16;;;;;;;6.95;4.85;;;21.60;80.10;;;;;;4993743;28;20208;-70
2023/09/30 11:31:45;;;;;;;7.50;4.90;;;21.60;80.10;;;;;;4994960;28;20290;-70
2023/09/30 11:34:11;;;;;;;7.80;5.10;;;21.60;80.20;;;;;;4968802;28;20327;-69
2023/09/30 11:36:42;;;;;;;8.18;4.97;;;21.60;80.00;;;;;;4975853;28;20251;-70
2023/09/30 11:39:09;;;;;;;6.50;4.70;;;21.60;79.90;;;;;;5001300;28;20300;-70
2023/09/30 11:41:43;;;;;;;9.48;5.35;;;21.60;80.10;;;;;;4996599;28;20191;-70
2023/09/30 11:44:14;;;;;;;9.20;5.15;;;21.60;80.20;;;;;;4996601;28;20195;-70
2023/09/30 11:47:05;;;;;;;9.25;5.35;;;21.60;80.20;;;;;;4987735;28;20305;-70
2023/09/30 11:49:31;;;;;;;7.55;5.30;;;21.60;80.30;;;;;;4994352;28;20192;-69
2023/09/30 11:52:03;;;;;;;11.07;5.65;;;21.60;80.10;;;;;;4991035;28;20234;-69
2023/09/30 11:54:37;;;;;;;8.32;5.25;;;21.60;80.10;;;;;;4983318;28;20192;-70
2023/09/30 11:57:03;;;;;;;9.50;5.32;;;21.60;80.00;;;;;;5007300;28;20196;-69
2023/09/30 11:59:30;;;;;;;8.75;5.57;;;21.60;80.10;;;;;;5008687;28;20192;-69
2023/09/30 12:01:57;;;;;;;8.77;5.55;;;21.60;80.00;;;;;;4981495;28;20217;-70
2023/09/30 12:04:23;;;;;;;6.80;4.78;;;21.60;80.50;;;;;;4992620;28;20276;-69
2023/09/30 12:06:49;;;;;;;7.40;5.47;;;21.60;79.60;;;;;;4972418;28;20243;-70
2023/09/30 12:09:22;;;;;;;9.00;5.32;;;21.60;79.60;;;;;;4982689;28;20189;-70
2023/09/30 12:11:49;;;;;;;8.05;5.80;;;21.60;79.70;;;;;;4992129;28;20185;-69
2023/09/30 12:14:15;;;;;;;8.68;5.32;;;21.60;79.90;;;;;;5009615;28;20263;-69
2023/09/30 12:16:41;;;;;;;8.43;5.68;;;21.60;79.80;;;;;;4983697;28;20652;-69
2023/09/30 12:19:08;;;;;;;8.15;4.90;;;21.60;79.80;;;;;;5007965;28;20215;-69
2023/09/30 12:21:34;;;;;;;9.85;5.95;;;21.60;79.90;;;;;;4989707;28;20195;-70
2023/09/30 12:24:02;;;;;;;10.13;6.38;;;21.60;80.00;;;;;;4998693;28;20188;-69
2023/09/30 12:26:29;;;;;;;9.20;5.57;;;21.60;79.90;;;;;;4994296;28;20212;-70
2023/09/30 12:28:56;;;;;;;9.50;6.07;;;21.60;79.90;;;;;;4983291;28;20212;-70
2023/09/30 12:31:23;;;;;;;8.40;5.57;;;21.60;79.80;;;;;;5000472;28;20613;-70
2023/09/30 12:33:51;;;;;;;8.38;5.05;;;21.60;79.80;;;;;;5009885;28;20278;-71
2023/09/30 12:36:21;;;;;;;9.25;5.35;;;21.60;79.70;;;;;;4992404;28;20180;-71
2023/09/30 12:38:47;;;;;;;8.50;5.55;;;21.60;79.60;;;;;;4969973;28;20219;-70
2023/09/30 12:41:15;;;;;;;8.13;5.35;;;21.60;79.60;;;;;;4982628;28;20193;-71
2023/09/30 12:43:42;;;;;;;7.75;5.25;;;21.60;79.60;;;;;;4997205;28;20184;-71
2023/09/30 12:46:09;;;;;;;10.27;6.47;;;21.60;79.40;;;;;;4996170;28;20216;-71
2023/09/30 12:48:35;;;;;;;8.20;5.45;;;21.60;79.40;;;;;;5000450;28;20235;-70
2023/09/30 12:51:01;;;;;;;7.75;5.15;;;21.60;79.30;;;;;;4991850;28;20188;-70